sensor_id;sensor_type;location;lat;lon;timestamp;P1;durP1;ratioP1;P2;durP2;ratioP2
70967;SDS011;58629;48.808;8.820;2022-07-17T00:00:17;1.80;;;1.57;;
70967;SDS011;58629;48.808;8.820;2022-07-17T00:02:43;1.70;;;1.60;;
70967;SDS011;58629;48.808;8.820;2022-07-17T00:05:09;1.65;;;1.55;;
70967;SDS011;58629;48.808;8.820;2022-07-17T00:07:34;1.75;;;1.60;;
70967;SDS011;58629;48.808;8.820;2022-07-17T00:10:00;1.80;;;1.60;;
70967;SDS011;58629;48.808;8.820;2022-07-17T00:12:25;2.60;;;2.40;;
70967;SDS011;58629;48.808;8.820;2022-07-17T00:14:51;2.00;;;1.58;;
70967;SDS011;58629;48.808;8.820;2022-07-17T00:17:16;1.80;;;1.40;;
70967;SDS011;58629;48.808;8.820;2022-07-17T00:19:42;2.00;;;1.80;;
70967;SDS011;58629;48.808;8.820;2022-07-17T00:22:07;1.67;;;1.57;;
70967;SDS011;58629;48.808;8.820;2022-07-17T00:24:32;1.40;;;1.30;;
70967;SDS011;58629;48.808;8.820;2022-07-17T00:26:58;1.90;;;1.60;;
70967;SDS011;58629;48.808;8.820;2022-07-17T00:29:23;1.63;;;1.40;;
70967;SDS011;58629;48.808;8.820;2022-07-17T00:31:48;1.53;;;1.37;;
70967;SDS011;58629;48.808;8.820;2022-07-17T00:34:14;2.13;;;1.67;;
70967;SDS011;58629;48.808;8.820;2022-07-17T00:36:39;2.07;;;1.40;;
70967;SDS011;58629;48.808;8.820;2022-07-17T00:39:05;1.80;;;1.30;;
70967;SDS011;58629;48.808;8.820;2022-07-17T00:41:30;2.60;;;1.37;;
70967;SDS011;58629;48.808;8.820;2022-07-17T00:44:02;1.90;;;1.60;;
70967;SDS011;58629;48.808;8.820;2022-07-17T00:46:28;1.92;;;1.73;;
70967;SDS011;58629;48.808;8.820;2022-07-17T00:48:54;1.60;;;1.50;;
70967;SDS011;58629;48.808;8.820;2022-07-17T00:51:19;1.50;;;1.40;;
70967;SDS011;58629;48.808;8.820;2022-07-17T00:53:44;1.30;;;1.20;;
70967;SDS011;58629;48.808;8.820;2022-07-17T00:56:11;1.27;;;1.17;;
70967;SDS011;58629;48.808;8.820;2022-07-17T00:58:39;2.38;;;2.00;;
70967;SDS011;58629;48.808;8.820;2022-07-17T01:01:05;2.97;;;2.22;;
70967;SDS011;58629;48.808;8.820;2022-07-17T01:03:33;1.52;;;1.40;;
70967;SDS011;58629;48.808;8.820;2022-07-17T01:05:59;1.93;;;1.73;;
70967;SDS011;58629;48.808;8.820;2022-07-17T01:08:24;2.13;;;1.93;;
70967;SDS011;58629;48.808;8.820;2022-07-17T01:10:49;1.60;;;1.50;;
70967;SDS011;58629;48.808;8.820;2022-07-17T01:13:15;1.70;;;1.50;;
70967;SDS011;58629;48.808;8.820;2022-07-17T01:15:41;1.20;;;1.10;;
70967;SDS011;58629;48.808;8.820;2022-07-17T01:18:06;1.73;;;1.50;;
70967;SDS011;58629;48.808;8.820;2022-07-17T01:20:35;2.22;;;1.48;;
70967;SDS011;58629;48.808;8.820;2022-07-17T01:23:02;1.85;;;1.55;;
70967;SDS011;58629;48.808;8.820;2022-07-17T01:25:27;2.47;;;1.67;;
70967;SDS011;58629;48.808;8.820;2022-07-17T01:27:52;1.73;;;1.40;;
70967;SDS011;58629;48.808;8.820;2022-07-17T01:30:18;3.47;;;2.40;;
70967;SDS011;58629;48.808;8.820;2022-07-17T01:32:43;2.20;;;1.90;;
70967;SDS011;58629;48.808;8.820;2022-07-17T01:35:10;1.77;;;1.60;;
70967;SDS011;58629;48.808;8.820;2022-07-17T01:37:37;2.85;;;2.35;;
70967;SDS011;58629;48.808;8.820;2022-07-17T01:40:03;2.30;;;1.70;;
70967;SDS011;58629;48.808;8.820;2022-07-17T01:42:29;1.90;;;1.70;;
70967;SDS011;58629;48.808;8.820;2022-07-17T01:44:56;2.50;;;1.70;;
70967;SDS011;58629;48.808;8.820;2022-07-17T01:47:22;2.60;;;2.00;;
70967;SDS011;58629;48.808;8.820;2022-07-17T01:49:52;1.90;;;1.70;;
70967;SDS011;58629;48.808;8.820;2022-07-17T01:52:21;1.42;;;1.30;;
70967;SDS011;58629;48.808;8.820;2022-07-17T01:54:48;1.50;;;1.40;;
70967;SDS011;58629;48.808;8.820;2022-07-17T01:57:13;1.55;;;1.45;;
70967;SDS011;58629;48.808;8.820;2022-07-17T01:59:39;1.50;;;1.40;;
70967;SDS011;58629;48.808;8.820;2022-07-17T02:02:05;2.10;;;1.50;;
70967;SDS011;58629;48.808;8.820;2022-07-17T02:04:32;2.28;;;1.77;;
70967;SDS011;58629;48.808;8.820;2022-07-17T02:06:58;1.55;;;1.20;;
70967;SDS011;58629;48.808;8.820;2022-07-17T02:09:24;1.10;;;0.90;;
70967;SDS011;58629;48.808;8.820;2022-07-17T02:11:49;1.67;;;1.50;;
70967;SDS011;58629;48.808;8.820;2022-07-17T02:14:15;1.88;;;1.23;;
70967;SDS011;58629;48.808;8.820;2022-07-17T02:16:40;2.20;;;2.00;;
70967;SDS011;58629;48.808;8.820;2022-07-17T02:19:05;3.10;;;2.70;;
70967;SDS011;58629;48.808;8.820;2022-07-17T02:21:31;5.57;;;3.50;;
70967;SDS011;58629;48.808;8.820;2022-07-17T02:23:56;3.73;;;3.10;;
70967;SDS011;58629;48.808;8.820;2022-07-17T02:26:21;4.45;;;3.40;;
70967;SDS011;58629;48.808;8.820;2022-07-17T02:28:47;2.97;;;2.50;;
70967;SDS011;58629;48.808;8.820;2022-07-17T02:31:12;2.40;;;2.20;;
70967;SDS011;58629;48.808;8.820;2022-07-17T02:33:37;2.50;;;2.20;;
70967;SDS011;58629;48.808;8.820;2022-07-17T02:36:03;2.63;;;1.83;;
70967;SDS011;58629;48.808;8.820;2022-07-17T02:38:28;2.17;;;1.80;;
70967;SDS011;58629;48.808;8.820;2022-07-17T02:40:54;1.87;;;1.57;;
70967;SDS011;58629;48.808;8.820;2022-07-17T02:43:19;2.03;;;1.80;;
70967;SDS011;58629;48.808;8.820;2022-07-17T02:45:44;1.83;;;1.60;;
70967;SDS011;58629;48.808;8.820;2022-07-17T02:48:10;1.83;;;1.60;;
70967;SDS011;58629;48.808;8.820;2022-07-17T02:50:35;2.00;;;1.47;;
70967;SDS011;58629;48.808;8.820;2022-07-17T02:53:01;1.67;;;1.40;;
70967;SDS011;58629;48.808;8.820;2022-07-17T02:55:26;1.80;;;1.50;;
70967;SDS011;58629;48.808;8.820;2022-07-17T02:57:51;2.10;;;1.70;;
70967;SDS011;58629;48.808;8.820;2022-07-17T03:00:17;3.57;;;2.40;;
70967;SDS011;58629;48.808;8.820;2022-07-17T03:02:46;2.22;;;2.03;;
70967;SDS011;58629;48.808;8.820;2022-07-17T03:05:13;2.05;;;1.60;;
70967;SDS011;58629;48.808;8.820;2022-07-17T03:07:40;2.00;;;1.73;;
70967;SDS011;58629;48.808;8.820;2022-07-17T03:10:05;1.80;;;1.30;;
70967;SDS011;58629;48.808;8.820;2022-07-17T03:12:31;1.50;;;1.30;;
70967;SDS011;58629;48.808;8.820;2022-07-17T03:14:57;2.17;;;1.57;;
70967;SDS011;58629;48.808;8.820;2022-07-17T03:17:22;1.77;;;1.47;;
70967;SDS011;58629;48.808;8.820;2022-07-17T03:19:47;1.37;;;1.20;;
70967;SDS011;58629;48.808;8.820;2022-07-17T03:22:13;1.87;;;1.53;;
70967;SDS011;58629;48.808;8.820;2022-07-17T03:24:38;2.43;;;2.07;;
70967;SDS011;58629;48.808;8.820;2022-07-17T03:27:03;2.20;;;2.00;;
70967;SDS011;58629;48.808;8.820;2022-07-17T03:29:29;1.77;;;1.37;;
70967;SDS011;58629;48.808;8.820;2022-07-17T03:31:54;1.90;;;1.70;;
70967;SDS011;58629;48.808;8.820;2022-07-17T03:34:19;3.20;;;2.17;;
70967;SDS011;58629;48.808;8.820;2022-07-17T03:36:45;2.90;;;2.20;;
70967;SDS011;58629;48.808;8.820;2022-07-17T03:39:10;2.10;;;1.90;;
70967;SDS011;58629;48.808;8.820;2022-07-17T03:41:35;2.00;;;1.40;;
70967;SDS011;58629;48.808;8.820;2022-07-17T03:44:01;2.38;;;1.60;;
70967;SDS011;58629;48.808;8.820;2022-07-17T03:46:26;2.63;;;1.83;;
70967;SDS011;58629;48.808;8.820;2022-07-17T03:48:52;2.10;;;1.90;;
70967;SDS011;58629;48.808;8.820;2022-07-17T03:51:17;2.23;;;2.03;;
70967;SDS011;58629;48.808;8.820;2022-07-17T03:53:42;1.70;;;1.30;;
70967;SDS011;58629;48.808;8.820;2022-07-17T03:56:08;1.70;;;1.60;;
70967;SDS011;58629;48.808;8.820;2022-07-17T03:58:33;1.98;;;1.45;;
70967;SDS011;58629;48.808;8.820;2022-07-17T04:00:58;1.58;;;1.42;;
70967;SDS011;58629;48.808;8.820;2022-07-17T04:03:24;2.30;;;1.70;;
70967;SDS011;58629;48.808;8.820;2022-07-17T04:05:49;2.10;;;1.80;;
70967;SDS011;58629;48.808;8.820;2022-07-17T04:08:15;2.27;;;1.83;;
70967;SDS011;58629;48.808;8.820;2022-07-17T04:10:41;1.90;;;1.60;;
70967;SDS011;58629;48.808;8.820;2022-07-17T04:13:07;1.77;;;1.52;;
70967;SDS011;58629;48.808;8.820;2022-07-17T04:15:32;2.10;;;1.70;;
70967;SDS011;58629;48.808;8.820;2022-07-17T04:18:16;2.95;;;2.65;;
70967;SDS011;58629;48.808;8.820;2022-07-17T04:20:41;2.40;;;2.10;;
70967;SDS011;58629;48.808;8.820;2022-07-17T04:23:07;3.63;;;2.25;;
70967;SDS011;58629;48.808;8.820;2022-07-17T04:25:33;3.15;;;2.20;;
70967;SDS011;58629;48.808;8.820;2022-07-17T04:27:59;2.72;;;2.20;;
70967;SDS011;58629;48.808;8.820;2022-07-17T04:30:24;2.90;;;2.50;;
70967;SDS011;58629;48.808;8.820;2022-07-17T04:32:50;2.20;;;1.80;;
70967;SDS011;58629;48.808;8.820;2022-07-17T04:35:15;1.60;;;1.50;;
70967;SDS011;58629;48.808;8.820;2022-07-17T04:37:41;1.57;;;1.47;;
70967;SDS011;58629;48.808;8.820;2022-07-17T04:40:06;1.70;;;1.50;;
70967;SDS011;58629;48.808;8.820;2022-07-17T04:42:32;2.60;;;1.70;;
70967;SDS011;58629;48.808;8.820;2022-07-17T04:44:57;1.43;;;1.20;;
70967;SDS011;58629;48.808;8.820;2022-07-17T04:47:22;3.03;;;1.90;;
70967;SDS011;58629;48.808;8.820;2022-07-17T04:49:48;2.47;;;2.13;;
70967;SDS011;58629;48.808;8.820;2022-07-17T04:52:13;1.80;;;1.50;;
70967;SDS011;58629;48.808;8.820;2022-07-17T04:54:38;1.80;;;1.70;;
70967;SDS011;58629;48.808;8.820;2022-07-17T04:57:04;1.60;;;1.50;;
70967;SDS011;58629;48.808;8.820;2022-07-17T04:59:29;1.33;;;1.23;;
70967;SDS011;58629;48.808;8.820;2022-07-17T05:01:54;2.13;;;1.40;;
70967;SDS011;58629;48.808;8.820;2022-07-17T05:04:19;2.00;;;1.80;;
70967;SDS011;58629;48.808;8.820;2022-07-17T05:06:45;1.70;;;1.40;;
70967;SDS011;58629;48.808;8.820;2022-07-17T05:09:11;2.43;;;2.13;;
70967;SDS011;58629;48.808;8.820;2022-07-17T05:11:36;2.47;;;1.80;;
70967;SDS011;58629;48.808;8.820;2022-07-17T05:14:01;1.63;;;1.20;;
70967;SDS011;58629;48.808;8.820;2022-07-17T05:16:27;1.67;;;1.40;;
70967;SDS011;58629;48.808;8.820;2022-07-17T05:18:53;1.35;;;1.25;;
70967;SDS011;58629;48.808;8.820;2022-07-17T05:21:18;2.10;;;1.60;;
70967;SDS011;58629;48.808;8.820;2022-07-17T05:23:43;2.60;;;2.00;;
70967;SDS011;58629;48.808;8.820;2022-07-17T05:26:09;2.50;;;2.30;;
70967;SDS011;58629;48.808;8.820;2022-07-17T05:28:34;3.25;;;2.50;;
70967;SDS011;58629;48.808;8.820;2022-07-17T05:31:00;2.63;;;2.30;;
70967;SDS011;58629;48.808;8.820;2022-07-17T05:33:25;2.30;;;1.70;;
70967;SDS011;58629;48.808;8.820;2022-07-17T05:35:50;1.93;;;1.73;;
70967;SDS011;58629;48.808;8.820;2022-07-17T05:38:16;2.37;;;1.90;;
70967;SDS011;58629;48.808;8.820;2022-07-17T05:40:41;2.00;;;1.60;;
70967;SDS011;58629;48.808;8.820;2022-07-17T05:43:07;1.73;;;1.50;;
70967;SDS011;58629;48.808;8.820;2022-07-17T05:45:33;2.33;;;2.03;;
70967;SDS011;58629;48.808;8.820;2022-07-17T05:47:58;1.80;;;1.70;;
70967;SDS011;58629;48.808;8.820;2022-07-17T05:50:23;2.07;;;1.80;;
70967;SDS011;58629;48.808;8.820;2022-07-17T05:52:49;2.17;;;1.80;;
70967;SDS011;58629;48.808;8.820;2022-07-17T05:55:14;1.70;;;1.60;;
70967;SDS011;58629;48.808;8.820;2022-07-17T05:57:39;1.57;;;1.47;;
70967;SDS011;58629;48.808;8.820;2022-07-17T06:00:05;1.60;;;1.40;;
70967;SDS011;58629;48.808;8.820;2022-07-17T06:02:31;1.45;;;1.35;;
70967;SDS011;58629;48.808;8.820;2022-07-17T06:04:56;1.97;;;1.77;;
70967;SDS011;58629;48.808;8.820;2022-07-17T06:07:21;2.67;;;1.90;;
70967;SDS011;58629;48.808;8.820;2022-07-17T06:09:46;3.37;;;2.03;;
70967;SDS011;58629;48.808;8.820;2022-07-17T06:12:12;3.03;;;2.33;;
70967;SDS011;58629;48.808;8.820;2022-07-17T06:14:37;2.97;;;2.67;;
70967;SDS011;58629;48.808;8.820;2022-07-17T06:17:02;3.00;;;2.40;;
70967;SDS011;58629;48.808;8.820;2022-07-17T06:19:27;2.60;;;2.40;;
70967;SDS011;58629;48.808;8.820;2022-07-17T06:21:53;3.00;;;2.30;;
70967;SDS011;58629;48.808;8.820;2022-07-17T06:24:18;3.40;;;2.30;;
70967;SDS011;58629;48.808;8.820;2022-07-17T06:26:44;2.83;;;2.53;;
70967;SDS011;58629;48.808;8.820;2022-07-17T06:29:09;4.33;;;2.60;;
70967;SDS011;58629;48.808;8.820;2022-07-17T06:31:34;3.03;;;2.40;;
70967;SDS011;58629;48.808;8.820;2022-07-17T06:34:00;4.23;;;2.60;;
70967;SDS011;58629;48.808;8.820;2022-07-17T06:36:26;4.10;;;3.70;;
70967;SDS011;58629;48.808;8.820;2022-07-17T06:38:51;3.92;;;3.53;;
70967;SDS011;58629;48.808;8.820;2022-07-17T06:41:16;3.07;;;2.70;;
70967;SDS011;58629;48.808;8.820;2022-07-17T06:43:42;3.03;;;2.70;;
70967;SDS011;58629;48.808;8.820;2022-07-17T06:46:07;3.30;;;2.77;;
70967;SDS011;58629;48.808;8.820;2022-07-17T06:48:33;2.75;;;2.45;;
70967;SDS011;58629;48.808;8.820;2022-07-17T06:50:58;4.37;;;2.43;;
70967;SDS011;58629;48.808;8.820;2022-07-17T06:53:24;2.83;;;2.53;;
70967;SDS011;58629;48.808;8.820;2022-07-17T06:55:49;2.67;;;2.10;;
70967;SDS011;58629;48.808;8.820;2022-07-17T06:58:15;2.57;;;2.37;;
70967;SDS011;58629;48.808;8.820;2022-07-17T07:00:40;3.10;;;2.80;;
70967;SDS011;58629;48.808;8.820;2022-07-17T07:03:06;2.90;;;2.60;;
70967;SDS011;58629;48.808;8.820;2022-07-17T07:05:31;3.07;;;2.77;;
70967;SDS011;58629;48.808;8.820;2022-07-17T07:07:56;2.90;;;2.60;;
70967;SDS011;58629;48.808;8.820;2022-07-17T07:10:22;4.27;;;2.87;;
70967;SDS011;58629;48.808;8.820;2022-07-17T07:12:47;2.87;;;2.67;;
70967;SDS011;58629;48.808;8.820;2022-07-17T07:15:13;2.90;;;2.53;;
70967;SDS011;58629;48.808;8.820;2022-07-17T07:17:39;4.00;;;3.63;;
70967;SDS011;58629;48.808;8.820;2022-07-17T07:20:05;2.97;;;2.70;;
70967;SDS011;58629;48.808;8.820;2022-07-17T07:22:31;2.72;;;2.53;;
70967;SDS011;58629;48.808;8.820;2022-07-17T07:24:57;2.70;;;2.50;;
70967;SDS011;58629;48.808;8.820;2022-07-17T07:27:22;2.67;;;2.30;;
70967;SDS011;58629;48.808;8.820;2022-07-17T07:29:48;2.50;;;2.30;;
70967;SDS011;58629;48.808;8.820;2022-07-17T07:32:13;2.50;;;2.30;;
70967;SDS011;58629;48.808;8.820;2022-07-17T07:34:38;2.97;;;2.63;;
70967;SDS011;58629;48.808;8.820;2022-07-17T07:37:04;3.07;;;2.80;;
70967;SDS011;58629;48.808;8.820;2022-07-17T07:39:29;3.83;;;3.40;;
70967;SDS011;58629;48.808;8.820;2022-07-17T07:41:55;3.10;;;2.80;;
70967;SDS011;58629;48.808;8.820;2022-07-17T07:44:20;3.00;;;2.67;;
70967;SDS011;58629;48.808;8.820;2022-07-17T07:46:45;2.60;;;2.40;;
70967;SDS011;58629;48.808;8.820;2022-07-17T07:49:10;2.40;;;2.20;;
70967;SDS011;58629;48.808;8.820;2022-07-17T07:51:36;2.90;;;2.70;;
70967;SDS011;58629;48.808;8.820;2022-07-17T07:54:01;2.60;;;2.40;;
70967;SDS011;58629;48.808;8.820;2022-07-17T07:56:27;3.10;;;2.80;;
70967;SDS011;58629;48.808;8.820;2022-07-17T07:58:52;2.95;;;2.75;;
70967;SDS011;58629;48.808;8.820;2022-07-17T08:01:17;2.60;;;2.40;;
70967;SDS011;58629;48.808;8.820;2022-07-17T08:03:43;2.87;;;2.67;;
70967;SDS011;58629;48.808;8.820;2022-07-17T08:06:08;3.27;;;2.87;;
70967;SDS011;58629;48.808;8.820;2022-07-17T08:08:33;3.10;;;2.70;;
70967;SDS011;58629;48.808;8.820;2022-07-17T08:10:59;2.72;;;2.53;;
70967;SDS011;58629;48.808;8.820;2022-07-17T08:13:24;2.70;;;2.50;;
70967;SDS011;58629;48.808;8.820;2022-07-17T08:15:50;2.70;;;2.50;;
70967;SDS011;58629;48.808;8.820;2022-07-17T08:18:15;3.87;;;2.90;;
70967;SDS011;58629;48.808;8.820;2022-07-17T08:20:40;2.30;;;2.10;;
70967;SDS011;58629;48.808;8.820;2022-07-17T08:23:05;2.40;;;2.20;;
70967;SDS011;58629;48.808;8.820;2022-07-17T08:25:31;3.00;;;2.70;;
70967;SDS011;58629;48.808;8.820;2022-07-17T08:27:57;2.92;;;2.67;;
70967;SDS011;58629;48.808;8.820;2022-07-17T08:30:22;3.50;;;2.93;;
70967;SDS011;58629;48.808;8.820;2022-07-17T08:32:48;3.63;;;2.50;;
70967;SDS011;58629;48.808;8.820;2022-07-17T08:35:13;4.00;;;3.10;;
70967;SDS011;58629;48.808;8.820;2022-07-17T08:38:12;2.87;;;2.67;;
70967;SDS011;58629;48.808;8.820;2022-07-17T08:40:32;3.13;;;2.55;;
70967;SDS011;58629;48.808;8.820;2022-07-17T08:42:59;3.63;;;3.00;;
70967;SDS011;58629;48.808;8.820;2022-07-17T08:45:25;3.38;;;3.08;;
70967;SDS011;58629;48.808;8.820;2022-07-17T08:47:51;2.90;;;2.70;;
70967;SDS011;58629;48.808;8.820;2022-07-17T08:50:22;3.35;;;2.90;;
70967;SDS011;58629;48.808;8.820;2022-07-17T08:52:49;3.33;;;2.88;;
70967;SDS011;58629;48.808;8.820;2022-07-17T08:55:15;3.00;;;2.80;;
70967;SDS011;58629;48.808;8.820;2022-07-17T08:57:42;2.80;;;2.60;;
70967;SDS011;58629;48.808;8.820;2022-07-17T09:00:10;2.95;;;2.75;;
70967;SDS011;58629;48.808;8.820;2022-07-17T09:02:37;2.92;;;2.60;;
70967;SDS011;58629;48.808;8.820;2022-07-17T09:05:03;2.87;;;2.67;;
70967;SDS011;58629;48.808;8.820;2022-07-17T09:07:29;3.17;;;2.80;;
70967;SDS011;58629;48.808;8.820;2022-07-17T09:09:55;2.40;;;2.20;;
70967;SDS011;58629;48.808;8.820;2022-07-17T09:12:28;3.27;;;2.97;;
70967;SDS011;58629;48.808;8.820;2022-07-17T09:14:55;3.25;;;2.95;;
70967;SDS011;58629;48.808;8.820;2022-07-17T09:17:21;3.22;;;2.88;;
70967;SDS011;58629;48.808;8.820;2022-07-17T09:19:50;2.80;;;2.60;;
70967;SDS011;58629;48.808;8.820;2022-07-17T09:22:16;3.23;;;2.90;;
70967;SDS011;58629;48.808;8.820;2022-07-17T09:27:13;2.90;;;2.70;;
70967;SDS011;58629;48.808;8.820;2022-07-17T09:29:56;3.00;;;2.70;;
70967;SDS011;58629;48.808;8.820;2022-07-17T09:32:26;2.70;;;2.50;;
70967;SDS011;58629;48.808;8.820;2022-07-17T09:34:57;3.05;;;2.50;;
70967;SDS011;58629;48.808;8.820;2022-07-17T09:37:27;2.65;;;2.45;;
70967;SDS011;58629;48.808;8.820;2022-07-17T09:39:54;2.60;;;2.40;;
70967;SDS011;58629;48.808;8.820;2022-07-17T09:42:24;4.13;;;2.60;;
70967;SDS011;58629;48.808;8.820;2022-07-17T09:45:01;2.50;;;2.30;;
70967;SDS011;58629;48.808;8.820;2022-07-17T09:47:29;2.70;;;2.50;;
70967;SDS011;58629;48.808;8.820;2022-07-17T09:49:56;2.80;;;2.60;;
70967;SDS011;58629;48.808;8.820;2022-07-17T09:52:24;2.75;;;2.50;;
70967;SDS011;58629;48.808;8.820;2022-07-17T09:54:53;2.60;;;2.40;;
70967;SDS011;58629;48.808;8.820;2022-07-17T09:57:20;2.50;;;2.40;;
70967;SDS011;58629;48.808;8.820;2022-07-17T09:59:50;2.90;;;2.20;;
70967;SDS011;58629;48.808;8.820;2022-07-17T10:02:19;2.17;;;2.05;;
70967;SDS011;58629;48.808;8.820;2022-07-17T10:04:46;2.78;;;2.10;;
70967;SDS011;58629;48.808;8.820;2022-07-17T10:07:12;2.43;;;2.23;;
70967;SDS011;58629;48.808;8.820;2022-07-17T10:09:37;2.55;;;2.35;;
70967;SDS011;58629;48.808;8.820;2022-07-17T10:12:04;2.28;;;2.10;;
70967;SDS011;58629;48.808;8.820;2022-07-17T10:14:30;2.70;;;2.50;;
70967;SDS011;58629;48.808;8.820;2022-07-17T10:17:05;2.53;;;2.35;;
70967;SDS011;58629;48.808;8.820;2022-07-17T10:19:32;2.40;;;2.20;;
70967;SDS011;58629;48.808;8.820;2022-07-17T10:21:58;2.80;;;2.60;;
70967;SDS011;58629;48.808;8.820;2022-07-17T10:24:26;2.55;;;2.30;;
70967;SDS011;58629;48.808;8.820;2022-07-17T10:26:52;2.60;;;2.40;;
70967;SDS011;58629;48.808;8.820;2022-07-17T10:29:25;2.23;;;2.13;;
70967;SDS011;58629;48.808;8.820;2022-07-17T10:31:51;2.83;;;2.53;;
70967;SDS011;58629;48.808;8.820;2022-07-17T10:34:17;2.30;;;2.10;;
70967;SDS011;58629;48.808;8.820;2022-07-17T10:36:43;2.20;;;2.00;;
70967;SDS011;58629;48.808;8.820;2022-07-17T10:39:12;2.33;;;2.13;;
70967;SDS011;58629;48.808;8.820;2022-07-17T10:42:01;2.30;;;2.10;;
70967;SDS011;58629;48.808;8.820;2022-07-17T10:44:27;2.10;;;2.00;;
70967;SDS011;58629;48.808;8.820;2022-07-17T10:46:54;2.17;;;2.00;;
70967;SDS011;58629;48.808;8.820;2022-07-17T10:49:20;2.30;;;2.10;;
70967;SDS011;58629;48.808;8.820;2022-07-17T10:51:46;1.87;;;1.77;;
70967;SDS011;58629;48.808;8.820;2022-07-17T10:54:12;2.25;;;2.05;;
70967;SDS011;58629;48.808;8.820;2022-07-17T10:56:38;2.00;;;1.90;;
70967;SDS011;58629;48.808;8.820;2022-07-17T10:59:05;2.28;;;2.08;;
70967;SDS011;58629;48.808;8.820;2022-07-17T11:01:31;2.53;;;2.20;;
70967;SDS011;58629;48.808;8.820;2022-07-17T11:03:57;2.20;;;2.10;;
70967;SDS011;58629;48.808;8.820;2022-07-17T11:06:25;2.40;;;2.20;;
70967;SDS011;58629;48.808;8.820;2022-07-17T11:08:56;2.30;;;2.10;;
70967;SDS011;58629;48.808;8.820;2022-07-17T11:11:38;2.60;;;2.40;;
70967;SDS011;58629;48.808;8.820;2022-07-17T11:14:10;2.40;;;2.20;;
70967;SDS011;58629;48.808;8.820;2022-07-17T11:19:21;2.00;;;1.80;;
70967;SDS011;58629;48.808;8.820;2022-07-17T11:21:52;1.80;;;1.70;;
70967;SDS011;58629;48.808;8.820;2022-07-17T11:24:18;2.20;;;2.10;;
70967;SDS011;58629;48.808;8.820;2022-07-17T11:26:44;2.30;;;1.90;;
70967;SDS011;58629;48.808;8.820;2022-07-17T11:29:09;2.00;;;1.90;;
70967;SDS011;58629;48.808;8.820;2022-07-17T11:31:35;2.23;;;2.03;;
70967;SDS011;58629;48.808;8.820;2022-07-17T11:34:02;2.03;;;1.80;;
70967;SDS011;58629;48.808;8.820;2022-07-17T11:36:31;2.33;;;1.90;;
70967;SDS011;58629;48.808;8.820;2022-07-17T11:38:59;1.90;;;1.80;;
70967;SDS011;58629;48.808;8.820;2022-07-17T11:41:33;1.92;;;1.83;;
70967;SDS011;58629;48.808;8.820;2022-07-17T11:44:09;2.33;;;2.10;;
70967;SDS011;58629;48.808;8.820;2022-07-17T11:46:37;2.25;;;2.08;;
70967;SDS011;58629;48.808;8.820;2022-07-17T11:49:03;2.90;;;1.90;;
70967;SDS011;58629;48.808;8.820;2022-07-17T11:51:39;2.65;;;2.30;;
70967;SDS011;58629;48.808;8.820;2022-07-17T11:54:09;1.88;;;1.77;;
70967;SDS011;58629;48.808;8.820;2022-07-17T11:56:36;2.08;;;1.92;;
70967;SDS011;58629;48.808;8.820;2022-07-17T11:59:02;2.20;;;2.10;;
70967;SDS011;58629;48.808;8.820;2022-07-17T12:01:29;2.15;;;1.95;;
70967;SDS011;58629;48.808;8.820;2022-07-17T12:04:02;2.10;;;1.90;;
70967;SDS011;58629;48.808;8.820;2022-07-17T12:06:27;2.07;;;1.97;;
70967;SDS011;58629;48.808;8.820;2022-07-17T12:08:53;2.37;;;1.90;;
70967;SDS011;58629;48.808;8.820;2022-07-17T12:11:19;2.10;;;2.00;;
70967;SDS011;58629;48.808;8.820;2022-07-17T12:13:45;2.10;;;2.00;;
70967;SDS011;58629;48.808;8.820;2022-07-17T12:16:18;1.88;;;1.77;;
70967;SDS011;58629;48.808;8.820;2022-07-17T12:18:55;2.33;;;2.13;;
70967;SDS011;58629;48.808;8.820;2022-07-17T12:21:26;2.00;;;1.90;;
70967;SDS011;58629;48.808;8.820;2022-07-17T12:23:56;2.13;;;2.00;;
70967;SDS011;58629;48.808;8.820;2022-07-17T12:26:23;3.03;;;1.90;;
70967;SDS011;58629;48.808;8.820;2022-07-17T12:28:49;2.30;;;2.10;;
70967;SDS011;58629;48.808;8.820;2022-07-17T12:31:14;1.83;;;1.73;;
70967;SDS011;58629;48.808;8.820;2022-07-17T12:33:40;2.90;;;1.90;;
70967;SDS011;58629;48.808;8.820;2022-07-17T12:36:05;2.75;;;2.05;;
70967;SDS011;58629;48.808;8.820;2022-07-17T12:38:31;2.10;;;2.00;;
70967;SDS011;58629;48.808;8.820;2022-07-17T12:40:57;1.90;;;1.80;;
70967;SDS011;58629;48.808;8.820;2022-07-17T12:43:23;1.95;;;1.85;;
70967;SDS011;58629;48.808;8.820;2022-07-17T12:45:48;2.07;;;1.87;;
70967;SDS011;58629;48.808;8.820;2022-07-17T12:48:14;1.92;;;1.83;;
70967;SDS011;58629;48.808;8.820;2022-07-17T12:50:39;2.73;;;2.10;;
70967;SDS011;58629;48.808;8.820;2022-07-17T12:53:05;2.30;;;2.00;;
70967;SDS011;58629;48.808;8.820;2022-07-17T12:55:31;1.98;;;1.80;;
70967;SDS011;58629;48.808;8.820;2022-07-17T12:57:57;1.80;;;1.70;;
70967;SDS011;58629;48.808;8.820;2022-07-17T13:00:22;1.80;;;1.70;;
70967;SDS011;58629;48.808;8.820;2022-07-17T13:02:48;1.87;;;1.77;;
70967;SDS011;58629;48.808;8.820;2022-07-17T13:05:13;2.27;;;2.03;;
70967;SDS011;58629;48.808;8.820;2022-07-17T13:07:38;1.80;;;1.70;;
70967;SDS011;58629;48.808;8.820;2022-07-17T13:10:04;2.20;;;2.10;;
70967;SDS011;58629;48.808;8.820;2022-07-17T13:12:30;2.10;;;1.90;;
70967;SDS011;58629;48.808;8.820;2022-07-17T13:14:55;3.20;;;2.20;;
70967;SDS011;58629;48.808;8.820;2022-07-17T13:17:20;2.20;;;2.10;;
70967;SDS011;58629;48.808;8.820;2022-07-17T13:19:45;2.80;;;2.20;;
70967;SDS011;58629;48.808;8.820;2022-07-17T13:22:11;2.73;;;2.20;;
70967;SDS011;58629;48.808;8.820;2022-07-17T13:24:36;2.20;;;2.00;;
70967;SDS011;58629;48.808;8.820;2022-07-17T13:27:01;2.25;;;2.05;;
70967;SDS011;58629;48.808;8.820;2022-07-17T13:29:26;2.30;;;2.17;;
70967;SDS011;58629;48.808;8.820;2022-07-17T13:31:55;2.50;;;2.30;;
70967;SDS011;58629;48.808;8.820;2022-07-17T13:34:21;2.10;;;2.00;;
70967;SDS011;58629;48.808;8.820;2022-07-17T13:36:47;1.90;;;1.80;;
70967;SDS011;58629;48.808;8.820;2022-07-17T13:39:13;2.30;;;2.00;;
70967;SDS011;58629;48.808;8.820;2022-07-17T13:41:38;1.90;;;1.80;;
70967;SDS011;58629;48.808;8.820;2022-07-17T13:44:04;2.00;;;1.90;;
70967;SDS011;58629;48.808;8.820;2022-07-17T13:46:30;2.13;;;2.00;;
70967;SDS011;58629;48.808;8.820;2022-07-17T13:48:56;2.22;;;1.95;;
70967;SDS011;58629;48.808;8.820;2022-07-17T13:51:21;1.87;;;1.77;;
70967;SDS011;58629;48.808;8.820;2022-07-17T13:53:46;2.73;;;2.20;;
70967;SDS011;58629;48.808;8.820;2022-07-17T13:56:12;2.00;;;1.80;;
70967;SDS011;58629;48.808;8.820;2022-07-17T13:58:37;1.70;;;1.60;;
70967;SDS011;58629;48.808;8.820;2022-07-17T14:01:02;1.77;;;1.67;;
70967;SDS011;58629;48.808;8.820;2022-07-17T14:03:28;1.77;;;1.67;;
70967;SDS011;58629;48.808;8.820;2022-07-17T14:05:53;3.28;;;1.90;;
70967;SDS011;58629;48.808;8.820;2022-07-17T14:08:19;2.00;;;1.80;;
70967;SDS011;58629;48.808;8.820;2022-07-17T14:10:44;2.00;;;1.80;;
70967;SDS011;58629;48.808;8.820;2022-07-17T14:13:09;2.40;;;2.20;;
70967;SDS011;58629;48.808;8.820;2022-07-17T14:15:34;1.87;;;1.77;;
70967;SDS011;58629;48.808;8.820;2022-07-17T14:18:00;2.10;;;1.83;;
70967;SDS011;58629;48.808;8.820;2022-07-17T14:20:26;2.30;;;2.10;;
70967;SDS011;58629;48.808;8.820;2022-07-17T14:22:52;2.20;;;2.00;;
70967;SDS011;58629;48.808;8.820;2022-07-17T14:25:17;2.47;;;2.20;;
70967;SDS011;58629;48.808;8.820;2022-07-17T14:27:43;2.30;;;2.10;;
70967;SDS011;58629;48.808;8.820;2022-07-17T14:30:08;2.80;;;2.23;;
70967;SDS011;58629;48.808;8.820;2022-07-17T14:32:34;2.35;;;2.17;;
70967;SDS011;58629;48.808;8.820;2022-07-17T14:35:00;2.00;;;1.80;;
70967;SDS011;58629;48.808;8.820;2022-07-17T14:37:25;1.70;;;1.60;;
70967;SDS011;58629;48.808;8.820;2022-07-17T14:39:50;1.80;;;1.70;;
70967;SDS011;58629;48.808;8.820;2022-07-17T14:42:15;1.70;;;1.60;;
70967;SDS011;58629;48.808;8.820;2022-07-17T14:44:41;2.03;;;1.90;;
70967;SDS011;58629;48.808;8.820;2022-07-17T14:47:06;2.10;;;1.90;;